sensor_id;sensor_type;location;lat;lon;timestamp;P1;durP1;ratioP1;P2;durP2;ratioP2
74059;SDS011;62414;53.436;8.828;2024-03-07T00:00:21;31.30;;;11.77;;
74059;SDS011;62414;53.436;8.828;2024-03-07T00:02:48;30.50;;;11.40;;
74059;SDS011;62414;53.436;8.828;2024-03-07T00:05:14;31.65;;;11.80;;
74059;SDS011;62414;53.436;8.828;2024-03-07T00:07:39;31.47;;;11.20;;
74059;SDS011;62414;53.436;8.828;2024-03-07T00:10:07;31.40;;;11.87;;
74059;SDS011;62414;53.436;8.828;2024-03-07T00:12:33;31.90;;;11.80;;
74059;SDS011;62414;53.436;8.828;2024-03-07T00:14:59;32.07;;;11.80;;
74059;SDS011;62414;53.436;8.828;2024-03-07T00:17:24;33.33;;;11.85;;
74059;SDS011;62414;53.436;8.828;2024-03-07T00:19:50;36.00;;;12.83;;
74059;SDS011;62414;53.436;8.828;2024-03-07T00:22:15;35.97;;;13.07;;
74059;SDS011;62414;53.436;8.828;2024-03-07T00:24:41;39.47;;;13.32;;
74059;SDS011;62414;53.436;8.828;2024-03-07T00:27:08;36.53;;;13.50;;
74059;SDS011;62414;53.436;8.828;2024-03-07T00:29:33;38.08;;;13.98;;
74059;SDS011;62414;53.436;8.828;2024-03-07T00:31:59;39.00;;;13.87;;
74059;SDS011;62414;53.436;8.828;2024-03-07T00:34:24;42.72;;;15.07;;
74059;SDS011;62414;53.436;8.828;2024-03-07T00:36:50;37.17;;;13.37;;
74059;SDS011;62414;53.436;8.828;2024-03-07T00:39:15;44.72;;;14.40;;
74059;SDS011;62414;53.436;8.828;2024-03-07T00:41:41;40.93;;;13.93;;
74059;SDS011;62414;53.436;8.828;2024-03-07T00:44:08;44.07;;;13.97;;
74059;SDS011;62414;53.436;8.828;2024-03-07T00:46:33;46.33;;;14.85;;
74059;SDS011;62414;53.436;8.828;2024-03-07T00:48:59;43.07;;;15.10;;
74059;SDS011;62414;53.436;8.828;2024-03-07T00:51:24;45.63;;;15.23;;
74059;SDS011;62414;53.436;8.828;2024-03-07T00:53:50;44.37;;;14.80;;
74059;SDS011;62414;53.436;8.828;2024-03-07T00:56:15;51.33;;;17.03;;
74059;SDS011;62414;53.436;8.828;2024-03-07T00:58:41;54.22;;;16.20;;
74059;SDS011;62414;53.436;8.828;2024-03-07T01:01:08;47.93;;;16.00;;
74059;SDS011;62414;53.436;8.828;2024-03-07T01:03:33;57.45;;;17.60;;
74059;SDS011;62414;53.436;8.828;2024-03-07T01:05:59;59.70;;;17.47;;
74059;SDS011;62414;53.436;8.828;2024-03-07T01:08:24;54.65;;;17.48;;
74059;SDS011;62414;53.436;8.828;2024-03-07T01:10:50;59.50;;;17.70;;
74059;SDS011;62414;53.436;8.828;2024-03-07T01:13:15;60.95;;;17.42;;
74059;SDS011;62414;53.436;8.828;2024-03-07T01:15:41;61.10;;;18.03;;
74059;SDS011;62414;53.436;8.828;2024-03-07T01:18:08;63.57;;;19.30;;
74059;SDS011;62414;53.436;8.828;2024-03-07T01:20:33;67.28;;;18.77;;
74059;SDS011;62414;53.436;8.828;2024-03-07T01:22:59;55.97;;;18.17;;
74059;SDS011;62414;53.436;8.828;2024-03-07T01:25:24;64.57;;;19.15;;
74059;SDS011;62414;53.436;8.828;2024-03-07T01:27:50;60.27;;;18.37;;
74059;SDS011;62414;53.436;8.828;2024-03-07T01:30:15;58.23;;;17.87;;
74059;SDS011;62414;53.436;8.828;2024-03-07T01:32:41;62.42;;;18.73;;
74059;SDS011;62414;53.436;8.828;2024-03-07T01:35:08;58.37;;;17.00;;
74059;SDS011;62414;53.436;8.828;2024-03-07T01:37:34;55.50;;;16.75;;
74059;SDS011;62414;53.436;8.828;2024-03-07T01:40:00;58.33;;;17.75;;
74059;SDS011;62414;53.436;8.828;2024-03-07T01:42:25;53.20;;;16.73;;
74059;SDS011;62414;53.436;8.828;2024-03-07T01:44:50;57.50;;;17.17;;
74059;SDS011;62414;53.436;8.828;2024-03-07T01:47:16;387.77;;;33.33;;
74059;SDS011;62414;53.436;8.828;2024-03-07T01:49:42;62.57;;;18.23;;
74059;SDS011;62414;53.436;8.828;2024-03-07T01:52:09;58.92;;;17.88;;
74059;SDS011;62414;53.436;8.828;2024-03-07T01:54:34;61.13;;;18.50;;
74059;SDS011;62414;53.436;8.828;2024-03-07T01:57:01;59.43;;;17.43;;
74059;SDS011;62414;53.436;8.828;2024-03-07T01:59:26;58.97;;;17.88;;
74059;SDS011;62414;53.436;8.828;2024-03-07T02:01:52;66.90;;;18.47;;
74059;SDS011;62414;53.436;8.828;2024-03-07T02:04:17;59.88;;;18.17;;
74059;SDS011;62414;53.436;8.828;2024-03-07T02:06:43;60.67;;;18.27;;
74059;SDS011;62414;53.436;8.828;2024-03-07T02:09:10;67.60;;;17.97;;
74059;SDS011;62414;53.436;8.828;2024-03-07T02:11:35;69.60;;;19.02;;
74059;SDS011;62414;53.436;8.828;2024-03-07T02:14:01;55.33;;;17.17;;
74059;SDS011;62414;53.436;8.828;2024-03-07T02:16:26;61.90;;;17.92;;
74059;SDS011;62414;53.436;8.828;2024-03-07T02:18:52;62.80;;;18.20;;
74059;SDS011;62414;53.436;8.828;2024-03-07T02:21:19;57.37;;;16.93;;
74059;SDS011;62414;53.436;8.828;2024-03-07T02:23:44;55.00;;;16.02;;
74059;SDS011;62414;53.436;8.828;2024-03-07T02:26:10;56.57;;;16.77;;
74059;SDS011;62414;53.436;8.828;2024-03-07T02:28:35;51.08;;;15.68;;
74059;SDS011;62414;53.436;8.828;2024-03-07T02:31:01;56.97;;;16.60;;
74059;SDS011;62414;53.436;8.828;2024-03-07T02:33:26;63.80;;;17.37;;
74059;SDS011;62414;53.436;8.828;2024-03-07T02:35:52;58.08;;;17.30;;
74059;SDS011;62414;53.436;8.828;2024-03-07T02:38:19;54.20;;;15.93;;
74059;SDS011;62414;53.436;8.828;2024-03-07T02:40:44;56.47;;;16.48;;
74059;SDS011;62414;53.436;8.828;2024-03-07T02:43:10;49.65;;;15.90;;
74059;SDS011;62414;53.436;8.828;2024-03-07T02:45:36;48.83;;;15.57;;
74059;SDS011;62414;53.436;8.828;2024-03-07T02:48:01;49.93;;;15.67;;
74059;SDS011;62414;53.436;8.828;2024-03-07T02:50:27;54.25;;;16.48;;
74059;SDS011;62414;53.436;8.828;2024-03-07T02:52:53;51.60;;;16.13;;
74059;SDS011;62414;53.436;8.828;2024-03-07T02:55:19;52.85;;;15.52;;
74059;SDS011;62414;53.436;8.828;2024-03-07T02:57:45;50.75;;;15.57;;
74059;SDS011;62414;53.436;8.828;2024-03-07T03:00:11;52.67;;;15.57;;
74059;SDS011;62414;53.436;8.828;2024-03-07T03:02:37;49.70;;;15.80;;
74059;SDS011;62414;53.436;8.828;2024-03-07T03:05:02;41.93;;;13.93;;
74059;SDS011;62414;53.436;8.828;2024-03-07T03:07:29;49.30;;;14.90;;
74059;SDS011;62414;53.436;8.828;2024-03-07T03:09:54;46.92;;;15.18;;
74059;SDS011;62414;53.436;8.828;2024-03-07T03:12:21;52.13;;;15.20;;
74059;SDS011;62414;53.436;8.828;2024-03-07T03:14:46;51.45;;;15.73;;
74059;SDS011;62414;53.436;8.828;2024-03-07T03:17:12;47.33;;;15.63;;
74059;SDS011;62414;53.436;8.828;2024-03-07T03:19:37;49.73;;;14.73;;
74059;SDS011;62414;53.436;8.828;2024-03-07T03:22:03;55.97;;;16.05;;
74059;SDS011;62414;53.436;8.828;2024-03-07T03:24:29;49.13;;;15.37;;
74059;SDS011;62414;53.436;8.828;2024-03-07T03:26:54;51.10;;;15.32;;
74059;SDS011;62414;53.436;8.828;2024-03-07T03:29:21;52.43;;;15.63;;
74059;SDS011;62414;53.436;8.828;2024-03-07T03:31:46;52.88;;;16.35;;
74059;SDS011;62414;53.436;8.828;2024-03-07T03:34:12;51.73;;;14.83;;
74059;SDS011;62414;53.436;8.828;2024-03-07T03:36:37;45.90;;;14.43;;
74059;SDS011;62414;53.436;8.828;2024-03-07T03:39:03;49.60;;;15.75;;
74059;SDS011;62414;53.436;8.828;2024-03-07T03:41:28;49.40;;;15.87;;
74059;SDS011;62414;53.436;8.828;2024-03-07T03:43:54;47.20;;;14.57;;
74059;SDS011;62414;53.436;8.828;2024-03-07T03:46:21;51.47;;;14.98;;
74059;SDS011;62414;53.436;8.828;2024-03-07T03:48:48;53.13;;;15.73;;
74059;SDS011;62414;53.436;8.828;2024-03-07T03:51:13;47.28;;;14.88;;
74059;SDS011;62414;53.436;8.828;2024-03-07T03:53:39;44.40;;;13.80;;
74059;SDS011;62414;53.436;8.828;2024-03-07T03:56:04;46.13;;;14.00;;
74059;SDS011;62414;53.436;8.828;2024-03-07T03:58:30;49.38;;;14.73;;
74059;SDS011;62414;53.436;8.828;2024-03-07T04:00:56;48.77;;;14.83;;
74059;SDS011;62414;53.436;8.828;2024-03-07T04:03:22;48.17;;;15.38;;
74059;SDS011;62414;53.436;8.828;2024-03-07T04:05:48;47.15;;;14.75;;
74059;SDS011;62414;53.436;8.828;2024-03-07T04:08:13;51.70;;;15.27;;
74059;SDS011;62414;53.436;8.828;2024-03-07T04:10:39;47.60;;;16.03;;
74059;SDS011;62414;53.436;8.828;2024-03-07T04:13:04;46.90;;;15.07;;
74059;SDS011;62414;53.436;8.828;2024-03-07T04:15:30;53.97;;;16.10;;
74059;SDS011;62414;53.436;8.828;2024-03-07T04:17:55;50.53;;;15.47;;
74059;SDS011;62414;53.436;8.828;2024-03-07T04:20:22;47.93;;;15.63;;
74059;SDS011;62414;53.436;8.828;2024-03-07T04:22:48;47.05;;;15.30;;
74059;SDS011;62414;53.436;8.828;2024-03-07T04:25:13;49.87;;;14.47;;
74059;SDS011;62414;53.436;8.828;2024-03-07T04:27:39;49.95;;;15.27;;
74059;SDS011;62414;53.436;8.828;2024-03-07T04:30:05;43.93;;;14.17;;
74059;SDS011;62414;53.436;8.828;2024-03-07T04:32:32;45.33;;;14.18;;
74059;SDS011;62414;53.436;8.828;2024-03-07T04:34:57;49.13;;;15.15;;
74059;SDS011;62414;53.436;8.828;2024-03-07T04:37:24;46.13;;;14.73;;
74059;SDS011;62414;53.436;8.828;2024-03-07T04:39:50;38.17;;;13.13;;
74059;SDS011;62414;53.436;8.828;2024-03-07T04:42:15;43.53;;;14.03;;
74059;SDS011;62414;53.436;8.828;2024-03-07T04:44:41;43.47;;;13.87;;
74059;SDS011;62414;53.436;8.828;2024-03-07T04:47:06;43.83;;;13.43;;
74059;SDS011;62414;53.436;8.828;2024-03-07T04:49:32;43.47;;;14.03;;
74059;SDS011;62414;53.436;8.828;2024-03-07T04:51:58;45.50;;;13.98;;
74059;SDS011;62414;53.436;8.828;2024-03-07T04:54:27;41.92;;;13.95;;
74059;SDS011;62414;53.436;8.828;2024-03-07T04:56:53;42.85;;;13.48;;
74059;SDS011;62414;53.436;8.828;2024-03-07T04:59:19;41.23;;;13.23;;
74059;SDS011;62414;53.436;8.828;2024-03-07T05:01:45;41.78;;;13.30;;
74059;SDS011;62414;53.436;8.828;2024-03-07T05:04:12;42.33;;;13.88;;
74059;SDS011;62414;53.436;8.828;2024-03-07T05:06:37;42.67;;;14.38;;
74059;SDS011;62414;53.436;8.828;2024-03-07T05:09:03;41.83;;;13.43;;
74059;SDS011;62414;53.436;8.828;2024-03-07T05:11:31;38.05;;;13.00;;
74059;SDS011;62414;53.436;8.828;2024-03-07T05:13:56;44.90;;;12.80;;
74059;SDS011;62414;53.436;8.828;2024-03-07T05:16:22;43.80;;;13.47;;
74059;SDS011;62414;53.436;8.828;2024-03-07T05:18:48;44.53;;;13.90;;
74059;SDS011;62414;53.436;8.828;2024-03-07T05:21:13;42.80;;;13.13;;
74059;SDS011;62414;53.436;8.828;2024-03-07T05:23:39;43.50;;;13.83;;
74059;SDS011;62414;53.436;8.828;2024-03-07T05:26:04;42.08;;;14.20;;
74059;SDS011;62414;53.436;8.828;2024-03-07T05:28:31;40.30;;;13.47;;
74059;SDS011;62414;53.436;8.828;2024-03-07T05:30:57;38.90;;;12.38;;
74059;SDS011;62414;53.436;8.828;2024-03-07T05:33:22;40.63;;;12.73;;
74059;SDS011;62414;53.436;8.828;2024-03-07T05:35:48;45.57;;;13.60;;
74059;SDS011;62414;53.436;8.828;2024-03-07T05:38:13;38.72;;;12.88;;
74059;SDS011;62414;53.436;8.828;2024-03-07T05:40:39;38.07;;;13.50;;
74059;SDS011;62414;53.436;8.828;2024-03-07T05:43:04;36.77;;;12.13;;
74059;SDS011;62414;53.436;8.828;2024-03-07T05:45:31;41.88;;;13.15;;
74059;SDS011;62414;53.436;8.828;2024-03-07T05:47:57;43.88;;;13.15;;
74059;SDS011;62414;53.436;8.828;2024-03-07T05:50:22;38.80;;;12.47;;
74059;SDS011;62414;53.436;8.828;2024-03-07T05:52:47;39.10;;;12.83;;
74059;SDS011;62414;53.436;8.828;2024-03-07T05:55:13;36.47;;;13.03;;
74059;SDS011;62414;53.436;8.828;2024-03-07T05:57:39;38.75;;;12.85;;
74059;SDS011;62414;53.436;8.828;2024-03-07T06:00:05;35.87;;;12.57;;
74059;SDS011;62414;53.436;8.828;2024-03-07T06:02:38;36.95;;;12.82;;
74059;SDS011;62414;53.436;8.828;2024-03-07T06:05:04;38.63;;;12.55;;
74059;SDS011;62414;53.436;8.828;2024-03-07T06:07:30;37.38;;;11.65;;
74059;SDS011;62414;53.436;8.828;2024-03-07T06:09:55;40.40;;;13.30;;
74059;SDS011;62414;53.436;8.828;2024-03-07T06:12:21;39.17;;;13.63;;
74059;SDS011;62414;53.436;8.828;2024-03-07T06:14:46;41.30;;;13.30;;
74059;SDS011;62414;53.436;8.828;2024-03-07T06:17:12;42.97;;;12.60;;
74059;SDS011;62414;53.436;8.828;2024-03-07T06:19:39;37.60;;;12.87;;
74059;SDS011;62414;53.436;8.828;2024-03-07T06:22:04;41.83;;;13.10;;
74059;SDS011;62414;53.436;8.828;2024-03-07T06:24:30;39.47;;;12.87;;
74059;SDS011;62414;53.436;8.828;2024-03-07T06:26:55;39.45;;;13.70;;
74059;SDS011;62414;53.436;8.828;2024-03-07T06:29:21;42.40;;;13.03;;
74059;SDS011;62414;53.436;8.828;2024-03-07T06:31:46;39.37;;;13.10;;
74059;SDS011;62414;53.436;8.828;2024-03-07T06:34:12;36.45;;;12.77;;
74059;SDS011;62414;53.436;8.828;2024-03-07T06:36:39;35.17;;;11.70;;
74059;SDS011;62414;53.436;8.828;2024-03-07T06:39:04;35.28;;;12.35;;
74059;SDS011;62414;53.436;8.828;2024-03-07T06:41:30;39.20;;;13.17;;
74059;SDS011;62414;53.436;8.828;2024-03-07T06:43:56;35.67;;;12.00;;
74059;SDS011;62414;53.436;8.828;2024-03-07T06:46:21;36.70;;;11.87;;
74059;SDS011;62414;53.436;8.828;2024-03-07T06:48:47;32.30;;;11.40;;
74059;SDS011;62414;53.436;8.828;2024-03-07T06:51:12;38.07;;;11.47;;
74059;SDS011;62414;53.436;8.828;2024-03-07T06:53:39;36.72;;;11.73;;
74059;SDS011;62414;53.436;8.828;2024-03-07T06:56:05;29.80;;;9.70;;
74059;SDS011;62414;53.436;8.828;2024-03-07T06:58:31;28.38;;;9.70;;
74059;SDS011;62414;53.436;8.828;2024-03-07T07:00:56;24.80;;;9.87;;
74059;SDS011;62414;53.436;8.828;2024-03-07T07:03:22;26.13;;;9.77;;
74059;SDS011;62414;53.436;8.828;2024-03-07T07:05:47;22.23;;;8.60;;
74059;SDS011;62414;53.436;8.828;2024-03-07T07:08:13;27.10;;;9.38;;
74059;SDS011;62414;53.436;8.828;2024-03-07T07:10:40;24.73;;;8.90;;
74059;SDS011;62414;53.436;8.828;2024-03-07T07:13:06;22.38;;;8.45;;
74059;SDS011;62414;53.436;8.828;2024-03-07T07:15:32;23.25;;;8.50;;
74059;SDS011;62414;53.436;8.828;2024-03-07T07:17:57;20.27;;;7.90;;
74059;SDS011;62414;53.436;8.828;2024-03-07T07:20:23;18.85;;;8.00;;
74059;SDS011;62414;53.436;8.828;2024-03-07T07:22:49;21.75;;;8.18;;
74059;SDS011;62414;53.436;8.828;2024-03-07T07:25:14;23.00;;;8.60;;
74059;SDS011;62414;53.436;8.828;2024-03-07T07:27:43;22.92;;;8.77;;
74059;SDS011;62414;53.436;8.828;2024-03-07T07:30:09;22.57;;;8.83;;
74059;SDS011;62414;53.436;8.828;2024-03-07T07:32:35;23.65;;;8.85;;
74059;SDS011;62414;53.436;8.828;2024-03-07T07:35:01;26.25;;;8.98;;
74059;SDS011;62414;53.436;8.828;2024-03-07T07:37:26;19.67;;;8.50;;
74059;SDS011;62414;53.436;8.828;2024-03-07T07:39:52;22.73;;;8.93;;
74059;SDS011;62414;53.436;8.828;2024-03-07T07:42:17;23.17;;;8.88;;
74059;SDS011;62414;53.436;8.828;2024-03-07T07:44:44;23.77;;;8.93;;
74059;SDS011;62414;53.436;8.828;2024-03-07T07:47:10;23.42;;;8.82;;
74059;SDS011;62414;53.436;8.828;2024-03-07T07:49:35;23.70;;;8.73;;
74059;SDS011;62414;53.436;8.828;2024-03-07T07:52:01;23.50;;;8.73;;
74059;SDS011;62414;53.436;8.828;2024-03-07T07:54:26;23.03;;;8.57;;
74059;SDS011;62414;53.436;8.828;2024-03-07T07:56:52;21.83;;;8.30;;
74059;SDS011;62414;53.436;8.828;2024-03-07T07:59:17;21.30;;;9.00;;
74059;SDS011;62414;53.436;8.828;2024-03-07T08:01:44;21.27;;;9.07;;
74059;SDS011;62414;53.436;8.828;2024-03-07T08:04:10;20.05;;;7.90;;
74059;SDS011;62414;53.436;8.828;2024-03-07T08:06:35;22.67;;;8.90;;
74059;SDS011;62414;53.436;8.828;2024-03-07T08:09:01;19.23;;;8.23;;
74059;SDS011;62414;53.436;8.828;2024-03-07T08:11:26;20.88;;;8.57;;
74059;SDS011;62414;53.436;8.828;2024-03-07T08:13:52;18.63;;;8.07;;
74059;SDS011;62414;53.436;8.828;2024-03-07T08:16:17;17.97;;;8.13;;
74059;SDS011;62414;53.436;8.828;2024-03-07T08:18:44;22.15;;;8.82;;
74059;SDS011;62414;53.436;8.828;2024-03-07T08:21:10;19.55;;;7.43;;
74059;SDS011;62414;53.436;8.828;2024-03-07T08:23:35;21.70;;;8.73;;
74059;SDS011;62414;53.436;8.828;2024-03-07T08:26:01;18.20;;;8.17;;
74059;SDS011;62414;53.436;8.828;2024-03-07T08:28:26;22.00;;;8.30;;
74059;SDS011;62414;53.436;8.828;2024-03-07T08:30:52;21.27;;;8.57;;
74059;SDS011;62414;53.436;8.828;2024-03-07T08:33:17;20.83;;;7.60;;
74059;SDS011;62414;53.436;8.828;2024-03-07T08:35:44;17.50;;;7.95;;
74059;SDS011;62414;53.436;8.828;2024-03-07T08:38:09;17.87;;;7.73;;
74059;SDS011;62414;53.436;8.828;2024-03-07T08:40:35;18.30;;;7.32;;
74059;SDS011;62414;53.436;8.828;2024-03-07T08:43:01;17.13;;;7.50;;
74059;SDS011;62414;53.436;8.828;2024-03-07T08:45:27;20.60;;;7.88;;
74059;SDS011;62414;53.436;8.828;2024-03-07T08:47:54;22.17;;;8.23;;
74059;SDS011;62414;53.436;8.828;2024-03-07T08:50:20;18.05;;;7.32;;
74059;SDS011;62414;53.436;8.828;2024-03-07T08:52:48;21.73;;;7.17;;
74059;SDS011;62414;53.436;8.828;2024-03-07T08:55:14;16.98;;;7.00;;
74059;SDS011;62414;53.436;8.828;2024-03-07T08:57:40;16.48;;;7.50;;
74059;SDS011;62414;53.436;8.828;2024-03-07T09:00:07;17.80;;;7.43;;
74059;SDS011;62414;53.436;8.828;2024-03-07T09:02:33;20.73;;;7.57;;
74059;SDS011;62414;53.436;8.828;2024-03-07T09:04:59;21.10;;;7.40;;
74059;SDS011;62414;53.436;8.828;2024-03-07T09:07:24;20.83;;;9.47;;
74059;SDS011;62414;53.436;8.828;2024-03-07T09:09:51;21.83;;;9.00;;
74059;SDS011;62414;53.436;8.828;2024-03-07T09:12:16;22.73;;;8.60;;
74059;SDS011;62414;53.436;8.828;2024-03-07T09:14:42;20.33;;;7.57;;
74059;SDS011;62414;53.436;8.828;2024-03-07T09:17:07;18.63;;;7.70;;
74059;SDS011;62414;53.436;8.828;2024-03-07T09:19:33;18.07;;;7.60;;
74059;SDS011;62414;53.436;8.828;2024-03-07T09:21:58;21.60;;;8.63;;
74059;SDS011;62414;53.436;8.828;2024-03-07T09:24:24;19.25;;;7.38;;
74059;SDS011;62414;53.436;8.828;2024-03-07T09:26:51;21.87;;;7.93;;
74059;SDS011;62414;53.436;8.828;2024-03-07T09:29:17;16.73;;;7.40;;
74059;SDS011;62414;53.436;8.828;2024-03-07T09:31:43;20.75;;;8.40;;
74059;SDS011;62414;53.436;8.828;2024-03-07T09:34:11;21.17;;;8.50;;
74059;SDS011;62414;53.436;8.828;2024-03-07T09:36:36;19.23;;;8.73;;
74059;SDS011;62414;53.436;8.828;2024-03-07T09:39:02;20.47;;;7.57;;
74059;SDS011;62414;53.436;8.828;2024-03-07T09:41:27;20.30;;;8.68;;
74059;SDS011;62414;53.436;8.828;2024-03-07T09:43:54;20.50;;;8.30;;
74059;SDS011;62414;53.436;8.828;2024-03-07T09:46:21;17.48;;;7.75;;
74059;SDS011;62414;53.436;8.828;2024-03-07T09:48:47;17.80;;;7.85;;
74059;SDS011;62414;53.436;8.828;2024-03-07T09:51:13;20.50;;;7.40;;
74059;SDS011;62414;53.436;8.828;2024-03-07T09:53:38;18.53;;;8.47;;
74059;SDS011;62414;53.436;8.828;2024-03-07T09:56:04;16.45;;;8.43;;
74059;SDS011;62414;53.436;8.828;2024-03-07T09:58:31;19.53;;;8.60;;
74059;SDS011;62414;53.436;8.828;2024-03-07T10:00:58;19.40;;;8.10;;
74059;SDS011;62414;53.436;8.828;2024-03-07T10:03:25;18.92;;;7.80;;
74059;SDS011;62414;53.436;8.828;2024-03-07T10:05:54;17.50;;;8.18;;
74059;SDS011;62414;53.436;8.828;2024-03-07T10:08:20;16.63;;;8.33;;
74059;SDS011;62414;53.436;8.828;2024-03-07T10:10:46;19.92;;;9.18;;
74059;SDS011;62414;53.436;8.828;2024-03-07T10:13:12;21.40;;;9.80;;
74059;SDS011;62414;53.436;8.828;2024-03-07T10:15:38;22.75;;;10.43;;
74059;SDS011;62414;53.436;8.828;2024-03-07T10:18:06;23.50;;;11.90;;
74059;SDS011;62414;53.436;8.828;2024-03-07T10:20:32;20.98;;;9.82;;
74059;SDS011;62414;53.436;8.828;2024-03-07T10:22:58;22.63;;;9.18;;
74059;SDS011;62414;53.436;8.828;2024-03-07T10:25:23;22.73;;;10.27;;
74059;SDS011;62414;53.436;8.828;2024-03-07T10:27:50;20.77;;;9.90;;
74059;SDS011;62414;53.436;8.828;2024-03-07T10:30:16;23.08;;;10.57;;
74059;SDS011;62414;53.436;8.828;2024-03-07T10:32:41;21.90;;;10.27;;
74059;SDS011;62414;53.436;8.828;2024-03-07T10:35:08;25.87;;;10.40;;
74059;SDS011;62414;53.436;8.828;2024-03-07T10:37:34;21.83;;;10.50;;
74059;SDS011;62414;53.436;8.828;2024-03-07T10:40:00;22.98;;;11.02;;
74059;SDS011;62414;53.436;8.828;2024-03-07T10:42:25;22.20;;;10.40;;
74059;SDS011;62414;53.436;8.828;2024-03-07T10:44:54;24.80;;;10.77;;
74059;SDS011;62414;53.436;8.828;2024-03-07T10:47:24;23.70;;;10.20;;
74059;SDS011;62414;53.436;8.828;2024-03-07T10:49:54;24.13;;;10.83;;
74059;SDS011;62414;53.436;8.828;2024-03-07T10:52:28;24.25;;;11.98;;
74059;SDS011;62414;53.436;8.828;2024-03-07T10:54:56;24.52;;;11.43;;
74059;SDS011;62414;53.436;8.828;2024-03-07T10:57:30;23.50;;;10.88;;
74059;SDS011;62414;53.436;8.828;2024-03-07T11:00:00;25.38;;;11.30;;
74059;SDS011;62414;53.436;8.828;2024-03-07T11:02:30;25.90;;;11.93;;
74059;SDS011;62414;53.436;8.828;2024-03-07T11:04:58;26.48;;;12.20;;
74059;SDS011;62414;53.436;8.828;2024-03-07T11:07:25;27.58;;;12.35;;
74059;SDS011;62414;53.436;8.828;2024-03-07T11:09:52;25.35;;;11.20;;
74059;SDS011;62414;53.436;8.828;2024-03-07T11:12:18;31.07;;;13.13;;
74059;SDS011;62414;53.436;8.828;2024-03-07T11:14:44;24.50;;;11.38;;
74059;SDS011;62414;53.436;8.828;2024-03-07T11:17:11;24.05;;;11.57;;
74059;SDS011;62414;53.436;8.828;2024-03-07T11:19:36;21.97;;;10.80;;
74059;SDS011;62414;53.436;8.828;2024-03-07T11:22:02;26.88;;;11.50;;
74059;SDS011;62414;53.436;8.828;2024-03-07T11:24:28;22.53;;;10.77;;
74059;SDS011;62414;53.436;8.828;2024-03-07T11:26:56;24.25;;;10.98;;
74059;SDS011;62414;53.436;8.828;2024-03-07T11:29:41;23.17;;;10.40;;
74059;SDS011;62414;53.436;8.828;2024-03-07T11:32:08;20.60;;;9.68;;
74059;SDS011;62414;53.436;8.828;2024-03-07T11:34:34;22.75;;;10.80;;
74059;SDS011;62414;53.436;8.828;2024-03-07T11:37:02;20.27;;;9.77;;
74059;SDS011;62414;53.436;8.828;2024-03-07T11:39:40;25.15;;;12.98;;
74059;SDS011;62414;53.436;8.828;2024-03-07T11:42:07;23.92;;;10.27;;
74059;SDS011;62414;53.436;8.828;2024-03-07T11:44:33;25.73;;;12.43;;
74059;SDS011;62414;53.436;8.828;2024-03-07T11:46:58;24.23;;;10.83;;
74059;SDS011;62414;53.436;8.828;2024-03-07T11:49:24;23.93;;;10.67;;
74059;SDS011;62414;53.436;8.828;2024-03-07T11:51:49;24.52;;;10.70;;
74059;SDS011;62414;53.436;8.828;2024-03-07T11:54:15;25.93;;;11.50;;
74059;SDS011;62414;53.436;8.828;2024-03-07T11:56:40;25.50;;;11.80;;
74059;SDS011;62414;53.436;8.828;2024-03-07T11:59:07;24.95;;;11.45;;
74059;SDS011;62414;53.436;8.828;2024-03-07T12:01:33;23.83;;;10.95;;
74059;SDS011;62414;53.436;8.828;2024-03-07T12:03:59;26.87;;;12.00;;
74059;SDS011;62414;53.436;8.828;2024-03-07T12:06:24;24.13;;;10.88;;
74059;SDS011;62414;53.436;8.828;2024-03-07T12:08:50;27.50;;;12.47;;
74059;SDS011;62414;53.436;8.828;2024-03-07T12:11:15;25.20;;;12.17;;
74059;SDS011;62414;53.436;8.828;2024-03-07T12:13:41;24.23;;;11.23;;
74059;SDS011;62414;53.436;8.828;2024-03-07T12:16:08;26.83;;;12.10;;
74059;SDS011;62414;53.436;8.828;2024-03-07T12:18:34;28.02;;;13.35;;
74059;SDS011;62414;53.436;8.828;2024-03-07T12:21:00;31.10;;;14.68;;
74059;SDS011;62414;53.436;8.828;2024-03-07T12:23:26;28.93;;;14.63;;
74059;SDS011;62414;53.436;8.828;2024-03-07T12:25:58;31.03;;;15.90;;
74059;SDS011;62414;53.436;8.828;2024-03-07T12:28:24;32.55;;;16.23;;
74059;SDS011;62414;53.436;8.828;2024-03-07T12:30:50;32.50;;;17.35;;
74059;SDS011;62414;53.436;8.828;2024-03-07T12:33:18;40.27;;;19.90;;
74059;SDS011;62414;53.436;8.828;2024-03-07T12:35:45;35.17;;;18.10;;
74059;SDS011;62414;53.436;8.828;2024-03-07T12:38:11;34.78;;;17.85;;
74059;SDS011;62414;53.436;8.828;2024-03-07T12:40:37;31.85;;;16.80;;
74059;SDS011;62414;53.436;8.828;2024-03-07T12:43:07;32.13;;;17.27;;
74059;SDS011;62414;53.436;8.828;2024-03-07T12:45:37;33.38;;;16.55;;
74059;SDS011;62414;53.436;8.828;2024-03-07T12:48:08;31.10;;;17.13;;
74059;SDS011;62414;53.436;8.828;2024-03-07T12:50:35;32.47;;;17.33;;
74059;SDS011;62414;53.436;8.828;2024-03-07T12:53:00;33.05;;;17.35;;
74059;SDS011;62414;53.436;8.828;2024-03-07T12:55:26;30.77;;;16.20;;
74059;SDS011;62414;53.436;8.828;2024-03-07T12:57:51;25.53;;;14.13;;
74059;SDS011;62414;53.436;8.828;2024-03-07T13:00:17;24.45;;;13.57;;
74059;SDS011;62414;53.436;8.828;2024-03-07T13:02:44;24.45;;;13.60;;
74059;SDS011;62414;53.436;8.828;2024-03-07T13:05:10;26.07;;;14.07;;
74059;SDS011;62414;53.436;8.828;2024-03-07T13:07:37;23.88;;;13.10;;
74059;SDS011;62414;53.436;8.828;2024-03-07T13:10:03;21.10;;;12.03;;
74059;SDS011;62414;53.436;8.828;2024-03-07T13:12:28;20.92;;;10.82;;
74059;SDS011;62414;53.436;8.828;2024-03-07T13:14:54;20.98;;;11.18;;
74059;SDS011;62414;53.436;8.828;2024-03-07T13:17:19;19.50;;;11.40;;
74059;SDS011;62414;53.436;8.828;2024-03-07T13:19:45;20.67;;;10.80;;
74059;SDS011;62414;53.436;8.828;2024-03-07T13:22:10;18.58;;;9.25;;
74059;SDS011;62414;53.436;8.828;2024-03-07T13:24:37;17.30;;;9.40;;
74059;SDS011;62414;53.436;8.828;2024-03-07T13:27:03;17.38;;;8.70;;
74059;SDS011;62414;53.436;8.828;2024-03-07T13:29:29;15.40;;;7.82;;
74059;SDS011;62414;53.436;8.828;2024-03-07T13:31:54;17.90;;;8.83;;
74059;SDS011;62414;53.436;8.828;2024-03-07T13:34:20;14.97;;;7.90;;
74059;SDS011;62414;53.436;8.828;2024-03-07T13:36:45;14.60;;;8.10;;
74059;SDS011;62414;53.436;8.828;2024-03-07T13:39:11;14.90;;;8.20;;
74059;SDS011;62414;53.436;8.828;2024-03-07T13:41:39;16.02;;;7.78;;
74059;SDS011;62414;53.436;8.828;2024-03-07T13:44:04;18.27;;;8.00;;
74059;SDS011;62414;53.436;8.828;2024-03-07T13:46:30;16.77;;;8.47;;
74059;SDS011;62414;53.436;8.828;2024-03-07T13:48:55;17.07;;;7.80;;
74059;SDS011;62414;53.436;8.828;2024-03-07T13:51:21;16.77;;;7.97;;
74059;SDS011;62414;53.436;8.828;2024-03-07T13:53:46;16.93;;;7.97;;
74059;SDS011;62414;53.436;8.828;2024-03-07T13:56:19;16.93;;;8.00;;
74059;SDS011;62414;53.436;8.828;2024-03-07T13:59:02;19.40;;;8.70;;
74059;SDS011;62414;53.436;8.828;2024-03-07T14:01:37;18.48;;;8.23;;
74059;SDS011;62414;53.436;8.828;2024-03-07T14:07:33;16.48;;;7.68;;
74059;SDS011;62414;53.436;8.828;2024-03-07T14:10:25;18.10;;;7.33;;
74059;SDS011;62414;53.436;8.828;2024-03-07T14:13:09;16.13;;;7.53;;
74059;SDS011;62414;53.436;8.828;2024-03-07T14:16:02;20.60;;;9.13;;
74059;SDS011;62414;53.436;8.828;2024-03-07T14:21:45;19.08;;;8.13;;
74059;SDS011;62414;53.436;8.828;2024-03-07T14:24:19;20.67;;;9.37;;
74059;SDS011;62414;53.436;8.828;2024-03-07T14:27:09;19.30;;;8.75;;